sensor_id;sensor_type;location;lat;lon;timestamp;P1;durP1;ratioP1;P2;durP2;ratioP2
57231;SDS011;43488;46.934;8.276;2023-04-24T00:00:34;587.28;;;254.98;;
57231;SDS011;43488;46.934;8.276;2023-04-24T00:03:03;586.08;;;249.32;;
57231;SDS011;43488;46.934;8.276;2023-04-24T00:05:30;589.65;;;259.58;;
57231;SDS011;43488;46.934;8.276;2023-04-24T00:07:58;578.15;;;241.07;;
57231;SDS011;43488;46.934;8.276;2023-04-24T00:10:25;593.45;;;255.38;;
57231;SDS011;43488;46.934;8.276;2023-04-24T00:12:52;560.92;;;207.98;;
57231;SDS011;43488;46.934;8.276;2023-04-24T00:15:20;570.67;;;222.57;;
57231;SDS011;43488;46.934;8.276;2023-04-24T00:17:47;586.67;;;245.23;;
57231;SDS011;43488;46.934;8.276;2023-04-24T00:20:14;596.95;;;259.40;;
57231;SDS011;43488;46.934;8.276;2023-04-24T00:22:42;573.63;;;230.80;;
57231;SDS011;43488;46.934;8.276;2023-04-24T00:25:09;584.15;;;254.13;;
57231;SDS011;43488;46.934;8.276;2023-04-24T00:27:37;567.90;;;241.68;;
57231;SDS011;43488;46.934;8.276;2023-04-24T00:30:06;567.47;;;249.60;;
57231;SDS011;43488;46.934;8.276;2023-04-24T00:32:34;577.70;;;251.98;;
57231;SDS011;43488;46.934;8.276;2023-04-24T00:35:02;570.42;;;248.98;;
57231;SDS011;43488;46.934;8.276;2023-04-24T00:37:31;586.42;;;256.60;;
57231;SDS011;43488;46.934;8.276;2023-04-24T00:39:58;580.88;;;252.63;;
57231;SDS011;43488;46.934;8.276;2023-04-24T00:42:26;584.67;;;253.20;;
57231;SDS011;43488;46.934;8.276;2023-04-24T00:44:53;588.35;;;258.48;;
57231;SDS011;43488;46.934;8.276;2023-04-24T00:47:22;588.20;;;250.30;;
57231;SDS011;43488;46.934;8.276;2023-04-24T00:49:50;596.83;;;261.42;;
57231;SDS011;43488;46.934;8.276;2023-04-24T00:52:17;583.33;;;243.52;;
57231;SDS011;43488;46.934;8.276;2023-04-24T00:54:45;594.65;;;260.17;;
57231;SDS011;43488;46.934;8.276;2023-04-24T00:57:12;598.83;;;261.20;;
57231;SDS011;43488;46.934;8.276;2023-04-24T00:59:43;587.38;;;251.43;;
57231;SDS011;43488;46.934;8.276;2023-04-24T01:02:11;579.03;;;251.18;;
57231;SDS011;43488;46.934;8.276;2023-04-24T01:04:39;569.72;;;243.85;;
57231;SDS011;43488;46.934;8.276;2023-04-24T01:07:08;578.72;;;247.45;;
57231;SDS011;43488;46.934;8.276;2023-04-24T01:09:38;581.92;;;251.88;;
57231;SDS011;43488;46.934;8.276;2023-04-24T01:12:10;590.20;;;256.42;;
57231;SDS011;43488;46.934;8.276;2023-04-24T01:14:37;586.17;;;254.85;;
57231;SDS011;43488;46.934;8.276;2023-04-24T01:17:04;573.80;;;230.85;;
57231;SDS011;43488;46.934;8.276;2023-04-24T01:19:32;583.70;;;249.80;;
57231;SDS011;43488;46.934;8.276;2023-04-24T01:22:00;585.58;;;250.63;;
57231;SDS011;43488;46.934;8.276;2023-04-24T01:24:29;587.15;;;255.40;;
57231;SDS011;43488;46.934;8.276;2023-04-24T01:26:57;571.75;;;230.23;;
57231;SDS011;43488;46.934;8.276;2023-04-24T01:29:24;584.78;;;253.82;;
57231;SDS011;43488;46.934;8.276;2023-04-24T01:31:52;577.72;;;243.60;;
57231;SDS011;43488;46.934;8.276;2023-04-24T01:34:22;581.70;;;253.85;;
57231;SDS011;43488;46.934;8.276;2023-04-24T01:36:50;577.63;;;240.88;;
57231;SDS011;43488;46.934;8.276;2023-04-24T01:39:17;590.50;;;260.65;;
57231;SDS011;43488;46.934;8.276;2023-04-24T01:41:46;579.85;;;244.00;;
57231;SDS011;43488;46.934;8.276;2023-04-24T01:44:14;582.15;;;253.73;;
57231;SDS011;43488;46.934;8.276;2023-04-24T01:46:41;588.80;;;251.38;;
57231;SDS011;43488;46.934;8.276;2023-04-24T01:49:09;584.22;;;254.77;;
57231;SDS011;43488;46.934;8.276;2023-04-24T01:51:37;577.35;;;245.73;;
57231;SDS011;43488;46.934;8.276;2023-04-24T01:54:04;577.15;;;251.48;;
57231;SDS011;43488;46.934;8.276;2023-04-24T01:56:35;573.10;;;247.35;;
57231;SDS011;43488;46.934;8.276;2023-04-24T01:59:07;576.30;;;251.27;;
57231;SDS011;43488;46.934;8.276;2023-04-24T02:01:37;590.20;;;257.13;;
57231;SDS011;43488;46.934;8.276;2023-04-24T02:04:05;584.58;;;257.33;;
57231;SDS011;43488;46.934;8.276;2023-04-24T02:06:34;578.35;;;245.75;;
57231;SDS011;43488;46.934;8.276;2023-04-24T02:09:02;576.13;;;250.35;;
57231;SDS011;43488;46.934;8.276;2023-04-24T02:11:29;572.50;;;248.10;;
57231;SDS011;43488;46.934;8.276;2023-04-24T02:13:57;571.78;;;250.20;;
57231;SDS011;43488;46.934;8.276;2023-04-24T02:16:25;574.22;;;248.05;;
57231;SDS011;43488;46.934;8.276;2023-04-24T02:18:52;552.63;;;230.75;;
57231;SDS011;43488;46.934;8.276;2023-04-24T02:21:19;567.45;;;245.25;;
57231;SDS011;43488;46.934;8.276;2023-04-24T02:23:46;570.40;;;250.30;;
57231;SDS011;43488;46.934;8.276;2023-04-24T02:26:14;572.40;;;248.30;;
57231;SDS011;43488;46.934;8.276;2023-04-24T02:28:41;570.08;;;246.23;;
57231;SDS011;43488;46.934;8.276;2023-04-24T02:31:08;566.78;;;243.60;;
57231;SDS011;43488;46.934;8.276;2023-04-24T02:33:36;570.63;;;251.30;;
57231;SDS011;43488;46.934;8.276;2023-04-24T02:36:04;567.83;;;242.65;;
57231;SDS011;43488;46.934;8.276;2023-04-24T02:38:31;563.05;;;246.30;;
57231;SDS011;43488;46.934;8.276;2023-04-24T02:40:59;550.17;;;230.52;;
57231;SDS011;43488;46.934;8.276;2023-04-24T02:43:27;557.33;;;244.00;;
57231;SDS011;43488;46.934;8.276;2023-04-24T02:45:56;557.25;;;236.32;;
57231;SDS011;43488;46.934;8.276;2023-04-24T02:48:23;549.13;;;230.60;;
57231;SDS011;43488;46.934;8.276;2023-04-24T02:50:51;554.15;;;233.38;;
57231;SDS011;43488;46.934;8.276;2023-04-24T02:53:18;565.00;;;248.40;;
57231;SDS011;43488;46.934;8.276;2023-04-24T02:55:46;560.28;;;238.38;;
57231;SDS011;43488;46.934;8.276;2023-04-24T02:58:15;552.30;;;232.35;;
57231;SDS011;43488;46.934;8.276;2023-04-24T03:00:43;564.55;;;248.75;;
57231;SDS011;43488;46.934;8.276;2023-04-24T03:03:11;559.33;;;242.15;;
57231;SDS011;43488;46.934;8.276;2023-04-24T03:05:38;564.78;;;243.23;;
57231;SDS011;43488;46.934;8.276;2023-04-24T03:08:06;563.78;;;242.15;;
57231;SDS011;43488;46.934;8.276;2023-04-24T03:10:34;569.95;;;245.73;;
57231;SDS011;43488;46.934;8.276;2023-04-24T03:13:01;569.13;;;246.55;;
57231;SDS011;43488;46.934;8.276;2023-04-24T03:15:28;564.75;;;239.98;;
57231;SDS011;43488;46.934;8.276;2023-04-24T03:17:55;572.58;;;252.70;;
57231;SDS011;43488;46.934;8.276;2023-04-24T03:20:24;570.72;;;248.00;;
57231;SDS011;43488;46.934;8.276;2023-04-24T03:22:52;566.85;;;245.77;;
57231;SDS011;43488;46.934;8.276;2023-04-24T03:25:20;561.97;;;238.43;;
57231;SDS011;43488;46.934;8.276;2023-04-24T03:27:48;569.35;;;246.73;;
57231;SDS011;43488;46.934;8.276;2023-04-24T03:30:16;568.85;;;243.30;;
57231;SDS011;43488;46.934;8.276;2023-04-24T03:32:43;570.22;;;248.57;;
57231;SDS011;43488;46.934;8.276;2023-04-24T03:35:11;571.03;;;245.13;;
57231;SDS011;43488;46.934;8.276;2023-04-24T03:37:38;568.13;;;242.88;;
57231;SDS011;43488;46.934;8.276;2023-04-24T03:40:06;575.30;;;250.50;;
57231;SDS011;43488;46.934;8.276;2023-04-24T03:42:34;571.60;;;248.23;;
57231;SDS011;43488;46.934;8.276;2023-04-24T03:45:01;568.13;;;240.40;;
57231;SDS011;43488;46.934;8.276;2023-04-24T03:47:29;569.75;;;242.95;;
57231;SDS011;43488;46.934;8.276;2023-04-24T03:49:56;570.80;;;248.57;;
57231;SDS011;43488;46.934;8.276;2023-04-24T03:52:24;571.65;;;248.07;;
57231;SDS011;43488;46.934;8.276;2023-04-24T03:54:51;566.58;;;240.07;;
57231;SDS011;43488;46.934;8.276;2023-04-24T03:57:19;568.17;;;244.20;;
57231;SDS011;43488;46.934;8.276;2023-04-24T03:59:46;570.28;;;245.10;;
57231;SDS011;43488;46.934;8.276;2023-04-24T04:02:14;565.17;;;242.15;;
57231;SDS011;43488;46.934;8.276;2023-04-24T04:04:41;564.30;;;240.40;;
57231;SDS011;43488;46.934;8.276;2023-04-24T04:07:08;561.50;;;241.10;;
57231;SDS011;43488;46.934;8.276;2023-04-24T04:09:36;567.40;;;244.93;;
57231;SDS011;43488;46.934;8.276;2023-04-24T04:12:03;556.45;;;240.50;;
57231;SDS011;43488;46.934;8.276;2023-04-24T04:14:31;559.72;;;238.18;;
57231;SDS011;43488;46.934;8.276;2023-04-24T04:16:59;556.33;;;235.75;;
57231;SDS011;43488;46.934;8.276;2023-04-24T04:19:26;560.80;;;241.45;;
57231;SDS011;43488;46.934;8.276;2023-04-24T04:21:54;563.45;;;245.45;;
57231;SDS011;43488;46.934;8.276;2023-04-24T04:24:22;555.95;;;234.98;;
57231;SDS011;43488;46.934;8.276;2023-04-24T04:26:51;562.03;;;247.38;;
57231;SDS011;43488;46.934;8.276;2023-04-24T04:29:19;555.75;;;240.75;;
57231;SDS011;43488;46.934;8.276;2023-04-24T04:31:46;539.95;;;228.82;;
57231;SDS011;43488;46.934;8.276;2023-04-24T04:34:13;505.77;;;211.82;;
57231;SDS011;43488;46.934;8.276;2023-04-24T04:36:41;528.08;;;225.88;;
57231;SDS011;43488;46.934;8.276;2023-04-24T04:39:09;526.80;;;222.90;;
57231;SDS011;43488;46.934;8.276;2023-04-24T04:41:36;529.35;;;230.73;;
57231;SDS011;43488;46.934;8.276;2023-04-24T04:44:04;542.95;;;234.55;;
57231;SDS011;43488;46.934;8.276;2023-04-24T04:46:31;540.70;;;237.05;;
57231;SDS011;43488;46.934;8.276;2023-04-24T04:49:02;542.92;;;235.52;;
57231;SDS011;43488;46.934;8.276;2023-04-24T04:51:30;529.27;;;224.97;;
57231;SDS011;43488;46.934;8.276;2023-04-24T04:53:58;533.88;;;225.35;;
57231;SDS011;43488;46.934;8.276;2023-04-24T04:56:26;532.30;;;226.35;;
57231;SDS011;43488;46.934;8.276;2023-04-24T04:58:53;539.97;;;232.27;;
57231;SDS011;43488;46.934;8.276;2023-04-24T05:01:21;534.28;;;227.85;;
57231;SDS011;43488;46.934;8.276;2023-04-24T05:03:49;540.40;;;229.63;;
57231;SDS011;43488;46.934;8.276;2023-04-24T05:06:17;547.60;;;239.57;;
57231;SDS011;43488;46.934;8.276;2023-04-24T05:08:49;544.53;;;234.32;;
57231;SDS011;43488;46.934;8.276;2023-04-24T05:11:17;549.55;;;241.45;;
57231;SDS011;43488;46.934;8.276;2023-04-24T05:13:44;542.38;;;230.80;;
57231;SDS011;43488;46.934;8.276;2023-04-24T05:16:12;548.17;;;241.02;;
57231;SDS011;43488;46.934;8.276;2023-04-24T05:18:39;531.97;;;222.38;;
57231;SDS011;43488;46.934;8.276;2023-04-24T05:21:07;540.60;;;233.60;;
57231;SDS011;43488;46.934;8.276;2023-04-24T05:23:37;547.05;;;240.70;;
57231;SDS011;43488;46.934;8.276;2023-04-24T05:26:05;539.88;;;229.80;;
57231;SDS011;43488;46.934;8.276;2023-04-24T05:28:32;542.30;;;235.65;;
57231;SDS011;43488;46.934;8.276;2023-04-24T05:30:59;530.35;;;224.63;;
57231;SDS011;43488;46.934;8.276;2023-04-24T05:33:27;541.85;;;233.05;;
57231;SDS011;43488;46.934;8.276;2023-04-24T05:35:54;548.05;;;241.35;;
57231;SDS011;43488;46.934;8.276;2023-04-24T05:38:22;554.42;;;244.82;;
57231;SDS011;43488;46.934;8.276;2023-04-24T05:40:49;552.97;;;246.60;;
57231;SDS011;43488;46.934;8.276;2023-04-24T05:43:16;547.90;;;235.63;;
57231;SDS011;43488;46.934;8.276;2023-04-24T05:45:43;536.30;;;225.27;;
57231;SDS011;43488;46.934;8.276;2023-04-24T05:48:11;540.80;;;228.50;;
57231;SDS011;43488;46.934;8.276;2023-04-24T05:50:39;542.88;;;235.35;;
57231;SDS011;43488;46.934;8.276;2023-04-24T05:53:06;537.45;;;227.73;;
57231;SDS011;43488;46.934;8.276;2023-04-24T05:55:34;548.42;;;236.45;;
57231;SDS011;43488;46.934;8.276;2023-04-24T05:58:02;560.88;;;244.68;;
57231;SDS011;43488;46.934;8.276;2023-04-24T06:00:29;549.85;;;240.50;;
57231;SDS011;43488;46.934;8.276;2023-04-24T06:02:57;539.63;;;225.85;;
57231;SDS011;43488;46.934;8.276;2023-04-24T06:05:24;548.90;;;236.38;;
57231;SDS011;43488;46.934;8.276;2023-04-24T06:07:51;553.05;;;236.27;;
57231;SDS011;43488;46.934;8.276;2023-04-24T06:10:19;552.22;;;241.55;;
57231;SDS011;43488;46.934;8.276;2023-04-24T06:12:46;550.67;;;235.95;;
57231;SDS011;43488;46.934;8.276;2023-04-24T06:15:13;555.00;;;242.55;;
57231;SDS011;43488;46.934;8.276;2023-04-24T06:17:40;546.85;;;231.95;;
57231;SDS011;43488;46.934;8.276;2023-04-24T06:20:08;550.97;;;239.68;;
57231;SDS011;43488;46.934;8.276;2023-04-24T06:22:37;558.47;;;245.50;;
57231;SDS011;43488;46.934;8.276;2023-04-24T06:25:06;552.28;;;236.32;;
57231;SDS011;43488;46.934;8.276;2023-04-24T06:27:34;552.80;;;240.88;;
57231;SDS011;43488;46.934;8.276;2023-04-24T06:30:02;548.10;;;236.98;;
57231;SDS011;43488;46.934;8.276;2023-04-24T06:32:29;556.50;;;241.25;;
57231;SDS011;43488;46.934;8.276;2023-04-24T06:34:57;556.75;;;243.82;;
57231;SDS011;43488;46.934;8.276;2023-04-24T06:37:24;554.75;;;239.68;;
57231;SDS011;43488;46.934;8.276;2023-04-24T06:39:52;554.90;;;243.27;;
57231;SDS011;43488;46.934;8.276;2023-04-24T06:42:19;555.33;;;238.93;;
57231;SDS011;43488;46.934;8.276;2023-04-24T06:44:51;555.38;;;241.13;;
57231;SDS011;43488;46.934;8.276;2023-04-24T06:47:18;556.30;;;243.38;;
57231;SDS011;43488;46.934;8.276;2023-04-24T06:49:45;560.90;;;250.85;;
57231;SDS011;43488;46.934;8.276;2023-04-24T06:52:14;555.95;;;242.77;;
57231;SDS011;43488;46.934;8.276;2023-04-24T06:54:41;554.45;;;243.25;;
57231;SDS011;43488;46.934;8.276;2023-04-24T06:57:09;562.42;;;246.60;;
57231;SDS011;43488;46.934;8.276;2023-04-24T06:59:37;561.08;;;249.93;;
57231;SDS011;43488;46.934;8.276;2023-04-24T07:02:04;546.95;;;235.52;;
57231;SDS011;43488;46.934;8.276;2023-04-24T07:04:33;536.53;;;231.90;;
57231;SDS011;43488;46.934;8.276;2023-04-24T07:07:00;533.15;;;231.63;;
57231;SDS011;43488;46.934;8.276;2023-04-24T07:09:29;519.95;;;221.63;;
57231;SDS011;43488;46.934;8.276;2023-04-24T07:11:56;554.58;;;240.18;;
57231;SDS011;43488;46.934;8.276;2023-04-24T07:14:23;549.08;;;234.15;;
57231;SDS011;43488;46.934;8.276;2023-04-24T07:16:50;548.75;;;234.90;;
57231;SDS011;43488;46.934;8.276;2023-04-24T07:19:18;546.50;;;239.65;;
57231;SDS011;43488;46.934;8.276;2023-04-24T07:21:47;540.60;;;232.13;;
57231;SDS011;43488;46.934;8.276;2023-04-24T07:24:14;544.92;;;234.55;;
57231;SDS011;43488;46.934;8.276;2023-04-24T07:26:42;549.90;;;234.85;;
57231;SDS011;43488;46.934;8.276;2023-04-24T07:29:09;549.50;;;240.18;;
57231;SDS011;43488;46.934;8.276;2023-04-24T07:31:36;553.28;;;240.38;;
57231;SDS011;43488;46.934;8.276;2023-04-24T07:34:03;553.00;;;240.68;;
57231;SDS011;43488;46.934;8.276;2023-04-24T07:36:31;557.65;;;248.85;;
57231;SDS011;43488;46.934;8.276;2023-04-24T07:38:59;547.00;;;237.65;;
57231;SDS011;43488;46.934;8.276;2023-04-24T07:41:27;556.67;;;245.98;;
57231;SDS011;43488;46.934;8.276;2023-04-24T07:43:54;548.67;;;237.40;;
57231;SDS011;43488;46.934;8.276;2023-04-24T07:46:22;551.55;;;240.30;;
57231;SDS011;43488;46.934;8.276;2023-04-24T07:48:50;548.38;;;238.52;;
57231;SDS011;43488;46.934;8.276;2023-04-24T07:51:17;557.95;;;245.50;;
57231;SDS011;43488;46.934;8.276;2023-04-24T07:53:45;545.85;;;233.82;;
57231;SDS011;43488;46.934;8.276;2023-04-24T07:56:12;543.55;;;232.15;;
57231;SDS011;43488;46.934;8.276;2023-04-24T07:58:40;551.00;;;239.90;;
57231;SDS011;43488;46.934;8.276;2023-04-24T08:01:07;552.78;;;237.65;;
57231;SDS011;43488;46.934;8.276;2023-04-24T08:03:35;554.67;;;241.38;;
57231;SDS011;43488;46.934;8.276;2023-04-24T08:06:05;557.88;;;244.50;;
57231;SDS011;43488;46.934;8.276;2023-04-24T08:08:33;550.20;;;237.60;;
57231;SDS011;43488;46.934;8.276;2023-04-24T08:11:01;554.15;;;238.40;;
57231;SDS011;43488;46.934;8.276;2023-04-24T08:13:29;541.63;;;231.60;;
57231;SDS011;43488;46.934;8.276;2023-04-24T08:15:57;557.13;;;242.38;;
57231;SDS011;43488;46.934;8.276;2023-04-24T08:18:25;542.95;;;232.65;;
57231;SDS011;43488;46.934;8.276;2023-04-24T08:20:53;555.47;;;244.00;;
57231;SDS011;43488;46.934;8.276;2023-04-24T08:23:21;544.08;;;233.00;;
57231;SDS011;43488;46.934;8.276;2023-04-24T08:25:49;556.92;;;250.05;;
57231;SDS011;43488;46.934;8.276;2023-04-24T08:28:16;549.85;;;241.48;;
57231;SDS011;43488;46.934;8.276;2023-04-24T08:30:47;556.13;;;242.95;;
57231;SDS011;43488;46.934;8.276;2023-04-24T08:33:15;542.67;;;232.57;;
57231;SDS011;43488;46.934;8.276;2023-04-24T08:35:42;550.38;;;241.30;;
57231;SDS011;43488;46.934;8.276;2023-04-24T08:38:09;552.95;;;246.80;;
57231;SDS011;43488;46.934;8.276;2023-04-24T08:40:37;548.92;;;237.57;;
57231;SDS011;43488;46.934;8.276;2023-04-24T08:43:06;553.88;;;243.73;;
57231;SDS011;43488;46.934;8.276;2023-04-24T08:45:37;556.53;;;244.98;;
57231;SDS011;43488;46.934;8.276;2023-04-24T08:48:05;546.08;;;233.48;;
57231;SDS011;43488;46.934;8.276;2023-04-24T08:50:33;561.47;;;248.13;;
57231;SDS011;43488;46.934;8.276;2023-04-24T08:53:02;553.90;;;244.57;;
57231;SDS011;43488;46.934;8.276;2023-04-24T08:55:30;546.45;;;236.25;;
57231;SDS011;43488;46.934;8.276;2023-04-24T08:57:59;543.50;;;237.10;;
57231;SDS011;43488;46.934;8.276;2023-04-24T09:00:27;545.72;;;235.38;;
57231;SDS011;43488;46.934;8.276;2023-04-24T09:02:55;529.20;;;231.73;;
57231;SDS011;43488;46.934;8.276;2023-04-24T09:05:23;541.85;;;235.68;;
57231;SDS011;43488;46.934;8.276;2023-04-24T09:07:54;555.58;;;249.90;;
57231;SDS011;43488;46.934;8.276;2023-04-24T09:10:23;551.50;;;239.88;;
57231;SDS011;43488;46.934;8.276;2023-04-24T09:12:52;554.40;;;242.55;;
57231;SDS011;43488;46.934;8.276;2023-04-24T09:15:21;558.20;;;242.70;;
57231;SDS011;43488;46.934;8.276;2023-04-24T09:17:49;549.85;;;239.23;;
57231;SDS011;43488;46.934;8.276;2023-04-24T09:20:16;560.08;;;241.60;;
57231;SDS011;43488;46.934;8.276;2023-04-24T09:22:44;564.60;;;247.20;;
57231;SDS011;43488;46.934;8.276;2023-04-24T09:25:12;566.13;;;247.18;;
57231;SDS011;43488;46.934;8.276;2023-04-24T09:27:43;571.95;;;252.40;;
57231;SDS011;43488;46.934;8.276;2023-04-24T09:30:13;567.15;;;244.98;;
57231;SDS011;43488;46.934;8.276;2023-04-24T09:32:47;573.22;;;249.32;;
57231;SDS011;43488;46.934;8.276;2023-04-24T09:35:16;578.03;;;251.55;;
57231;SDS011;43488;46.934;8.276;2023-04-24T09:37:44;582.85;;;259.30;;
57231;SDS011;43488;46.934;8.276;2023-04-24T09:40:19;582.80;;;252.48;;
57231;SDS011;43488;46.934;8.276;2023-04-24T09:42:53;589.63;;;261.42;;
57231;SDS011;43488;46.934;8.276;2023-04-24T09:45:27;572.58;;;245.02;;
57231;SDS011;43488;46.934;8.276;2023-04-24T09:48:02;573.85;;;253.48;;
57231;SDS011;43488;46.934;8.276;2023-04-24T09:50:30;583.30;;;256.45;;
57231;SDS011;43488;46.934;8.276;2023-04-24T09:53:01;582.95;;;254.98;;
57231;SDS011;43488;46.934;8.276;2023-04-24T09:55:31;581.42;;;253.05;;
57231;SDS011;43488;46.934;8.276;2023-04-24T09:57:58;580.15;;;255.80;;
57231;SDS011;43488;46.934;8.276;2023-04-24T10:00:28;575.67;;;245.90;;
57231;SDS011;43488;46.934;8.276;2023-04-24T10:03:01;572.90;;;245.88;;
57231;SDS011;43488;46.934;8.276;2023-04-24T10:05:33;576.15;;;251.38;;
57231;SDS011;43488;46.934;8.276;2023-04-24T10:08:08;569.42;;;246.07;;
57231;SDS011;43488;46.934;8.276;2023-04-24T10:10:44;575.95;;;249.85;;
57231;SDS011;43488;46.934;8.276;2023-04-24T10:13:13;565.78;;;244.13;;
57231;SDS011;43488;46.934;8.276;2023-04-24T10:15:42;582.00;;;256.08;;
57231;SDS011;43488;46.934;8.276;2023-04-24T10:18:10;574.20;;;251.43;;
57231;SDS011;43488;46.934;8.276;2023-04-24T10:20:39;577.65;;;252.55;;
57231;SDS011;43488;46.934;8.276;2023-04-24T10:23:06;558.97;;;235.48;;
57231;SDS011;43488;46.934;8.276;2023-04-24T10:25:34;572.58;;;248.43;;
57231;SDS011;43488;46.934;8.276;2023-04-24T10:28:04;576.50;;;257.52;;
57231;SDS011;43488;46.934;8.276;2023-04-24T10:30:33;565.17;;;245.20;;
57231;SDS011;43488;46.934;8.276;2023-04-24T10:33:05;560.67;;;240.48;;
57231;SDS011;43488;46.934;8.276;2023-04-24T10:35:38;562.60;;;242.40;;
57231;SDS011;43488;46.934;8.276;2023-04-24T10:38:14;572.70;;;253.02;;
57231;SDS011;43488;46.934;8.276;2023-04-24T10:40:50;575.63;;;248.98;;
57231;SDS011;43488;46.934;8.276;2023-04-24T10:43:18;578.70;;;249.40;;
57231;SDS011;43488;46.934;8.276;2023-04-24T10:46:00;586.13;;;256.40;;
57231;SDS011;43488;46.934;8.276;2023-04-24T10:48:29;582.58;;;253.07;;
57231;SDS011;43488;46.934;8.276;2023-04-24T10:50:59;589.08;;;255.35;;
57231;SDS011;43488;46.934;8.276;2023-04-24T10:53:28;584.28;;;252.43;;
57231;SDS011;43488;46.934;8.276;2023-04-24T10:56:04;582.80;;;252.05;;
57231;SDS011;43488;46.934;8.276;2023-04-24T11:01:26;582.67;;;251.40;;
57231;SDS011;43488;46.934;8.276;2023-04-24T11:04:01;573.90;;;246.48;;
57231;SDS011;43488;46.934;8.276;2023-04-24T11:06:30;584.08;;;253.55;;
57231;SDS011;43488;46.934;8.276;2023-04-24T11:09:03;575.00;;;246.82;;
57231;SDS011;43488;46.934;8.276;2023-04-24T11:11:36;585.35;;;254.65;;
57231;SDS011;43488;46.934;8.276;2023-04-24T11:14:07;575.50;;;250.23;;
57231;SDS011;43488;46.934;8.276;2023-04-24T11:19:21;573.58;;;249.27;;
57231;SDS011;43488;46.934;8.276;2023-04-24T11:24:31;592.17;;;262.23;;
57231;SDS011;43488;46.934;8.276;2023-04-24T11:27:07;574.30;;;249.15;;
57231;SDS011;43488;46.934;8.276;2023-04-24T11:32:38;573.30;;;255.40;;
57231;SDS011;43488;46.934;8.276;2023-04-24T11:35:20;567.05;;;250.82;;
57231;SDS011;43488;46.934;8.276;2023-04-24T11:37:54;559.70;;;247.43;;
57231;SDS011;43488;46.934;8.276;2023-04-24T11:40:22;555.63;;;241.73;;
57231;SDS011;43488;46.934;8.276;2023-04-24T11:42:51;598.33;;;265.05;;
57231;SDS011;43488;46.934;8.276;2023-04-24T11:45:27;623.15;;;276.98;;
57231;SDS011;43488;46.934;8.276;2023-04-24T11:47:56;632.55;;;279.98;;
57231;SDS011;43488;46.934;8.276;2023-04-24T11:50:25;645.88;;;285.80;;
57231;SDS011;43488;46.934;8.276;2023-04-24T11:52:54;637.28;;;282.45;;
57231;SDS011;43488;46.934;8.276;2023-04-24T11:57:55;653.83;;;291.93;;
57231;SDS011;43488;46.934;8.276;2023-04-24T12:00:45;635.63;;;282.35;;
57231;SDS011;43488;46.934;8.276;2023-04-24T12:03:22;636.58;;;274.63;;
57231;SDS011;43488;46.934;8.276;2023-04-24T12:05:50;653.70;;;284.55;;
57231;SDS011;43488;46.934;8.276;2023-04-24T12:08:27;652.78;;;281.98;;
57231;SDS011;43488;46.934;8.276;2023-04-24T12:10:56;655.60;;;292.77;;
57231;SDS011;43488;46.934;8.276;2023-04-24T12:13:25;658.75;;;288.42;;
57231;SDS011;43488;46.934;8.276;2023-04-24T12:15:52;662.97;;;296.92;;
57231;SDS011;43488;46.934;8.276;2023-04-24T12:18:23;653.28;;;289.70;;
57231;SDS011;43488;46.934;8.276;2023-04-24T12:20:51;639.40;;;280.17;;
57231;SDS011;43488;46.934;8.276;2023-04-24T12:23:34;648.03;;;277.15;;
57231;SDS011;43488;46.934;8.276;2023-04-24T12:26:06;659.17;;;288.67;;
57231;SDS011;43488;46.934;8.276;2023-04-24T12:28:37;660.92;;;296.42;;
57231;SDS011;43488;46.934;8.276;2023-04-24T12:31:05;672.10;;;307.63;;
57231;SDS011;43488;46.934;8.276;2023-04-24T12:33:34;672.80;;;300.80;;
57231;SDS011;43488;46.934;8.276;2023-04-24T12:36:02;662.97;;;282.65;;
57231;SDS011;43488;46.934;8.276;2023-04-24T12:38:30;676.08;;;302.05;;
57231;SDS011;43488;46.934;8.276;2023-04-24T12:43:35;676.72;;;297.95;;
57231;SDS011;43488;46.934;8.276;2023-04-24T12:46:04;652.25;;;292.55;;
57231;SDS011;43488;46.934;8.276;2023-04-24T12:48:31;644.53;;;284.40;;
57231;SDS011;43488;46.934;8.276;2023-04-24T12:50:59;656.88;;;295.70;;
57231;SDS011;43488;46.934;8.276;2023-04-24T12:53:29;663.57;;;296.70;;
57231;SDS011;43488;46.934;8.276;2023-04-24T12:56:00;650.22;;;277.63;;
57231;SDS011;43488;46.934;8.276;2023-04-24T12:58:28;636.97;;;285.37;;
57231;SDS011;43488;46.934;8.276;2023-04-24T13:00:56;594.13;;;258.98;;
57231;SDS011;43488;46.934;8.276;2023-04-24T13:03:23;588.05;;;255.35;;
57231;SDS011;43488;46.934;8.276;2023-04-24T13:05:51;608.53;;;264.75;;
57231;SDS011;43488;46.934;8.276;2023-04-24T13:08:19;606.65;;;268.75;;
57231;SDS011;43488;46.934;8.276;2023-04-24T13:10:47;637.55;;;284.52;;
57231;SDS011;43488;46.934;8.276;2023-04-24T13:13:17;652.20;;;280.33;;
57231;SDS011;43488;46.934;8.276;2023-04-24T13:15:44;650.70;;;290.35;;
57231;SDS011;43488;46.934;8.276;2023-04-24T13:18:11;640.90;;;283.23;;
57231;SDS011;43488;46.934;8.276;2023-04-24T13:20:40;637.25;;;281.52;;
57231;SDS011;43488;46.934;8.276;2023-04-24T13:23:09;638.10;;;278.67;;
57231;SDS011;43488;46.934;8.276;2023-04-24T13:25:37;634.30;;;279.42;;
57231;SDS011;43488;46.934;8.276;2023-04-24T13:28:05;631.50;;;270.80;;
57231;SDS011;43488;46.934;8.276;2023-04-24T13:30:33;630.17;;;277.58;;
57231;SDS011;43488;46.934;8.276;2023-04-24T13:33:01;606.10;;;261.48;;
57231;SDS011;43488;46.934;8.276;2023-04-24T13:35:29;564.80;;;245.85;;
57231;SDS011;43488;46.934;8.276;2023-04-24T13:37:57;591.83;;;252.82;;
57231;SDS011;43488;46.934;8.276;2023-04-24T13:40:25;592.05;;;264.73;;
57231;SDS011;43488;46.934;8.276;2023-04-24T13:42:52;583.42;;;257.02;;
57231;SDS011;43488;46.934;8.276;2023-04-24T13:45:20;618.03;;;268.60;;
57231;SDS011;43488;46.934;8.276;2023-04-24T13:47:47;624.00;;;266.42;;
57231;SDS011;43488;46.934;8.276;2023-04-24T13:50:14;628.10;;;278.92;;
57231;SDS011;43488;46.934;8.276;2023-04-24T13:52:42;630.50;;;274.60;;
57231;SDS011;43488;46.934;8.276;2023-04-24T13:55:09;635.20;;;281.20;;
57231;SDS011;43488;46.934;8.276;2023-04-24T13:57:38;639.47;;;284.40;;
57231;SDS011;43488;46.934;8.276;2023-04-24T14:00:08;630.53;;;282.42;;
57231;SDS011;43488;46.934;8.276;2023-04-24T14:02:37;633.10;;;274.80;;
57231;SDS011;43488;46.934;8.276;2023-04-24T14:05:04;627.03;;;269.80;;
57231;SDS011;43488;46.934;8.276;2023-04-24T14:07:32;628.75;;;282.88;;
57231;SDS011;43488;46.934;8.276;2023-04-24T14:10:02;615.78;;;275.95;;
57231;SDS011;43488;46.934;8.276;2023-04-24T14:12:33;639.17;;;283.77;;
57231;SDS011;43488;46.934;8.276;2023-04-24T14:15:01;619.38;;;259.63;;
57231;SDS011;43488;46.934;8.276;2023-04-24T14:17:31;630.40;;;275.02;;
57231;SDS011;43488;46.934;8.276;2023-04-24T14:20:01;636.47;;;282.13;;